Time;durP1;ratioP1;P1;durP2;ratioP2;P2;SDS_P1;SDS_P2;PMS_P1;PMS_P2;Temp;Humidity;BMP_temperature;BMP_pressure;BME280_temperature;BME280_humidity;BME280_pressure;Samples;Min_cycle;Max_cycle;Signal;HPM_P1;HPM_P2
2021/06/26 00:02:17;;;;;;;14.38;4.05;;;;;;;22.89;62.08;99290.52;130001;1090;114267;-71
2021/06/26 00:04:46;;;;;;;14.88;3.75;;;;;;;22.89;62.73;99289.70;130133;1090;22578;-71
2021/06/26 00:07:15;;;;;;;9.08;4.00;;;;;;;22.89;62.91;99284.96;130055;1089;114111;-71
2021/06/26 00:09:43;;;;;;;19.88;4.55;;;;;;;22.92;63.17;99291.80;130124;1089;22621;-71
2021/06/26 00:12:12;;;;;;;13.23;3.90;;;;;;;22.93;63.34;99284.28;130175;1089;22585;-71
2021/06/26 00:14:40;;;;;;;13.58;4.15;;;;;;;22.95;63.86;99290.27;130061;1089;114254;-71
2021/06/26 00:17:08;;;;;;;10.60;3.78;;;;;;;22.96;63.84;99292.71;130084;1089;22510;-71
2021/06/26 00:19:37;;;;;;;11.33;4.53;;;;;;;22.98;64.05;99290.40;129985;1090;114558;-71
2021/06/26 00:22:05;;;;;;;14.63;4.15;;;;;;;23.02;64.44;99290.53;130061;1090;23834;-71
2021/06/26 00:24:33;;;;;;;13.98;4.85;;;;;;;23.05;64.63;99289.84;130139;1090;22546;-70
2021/06/26 00:27:02;;;;;;;21.15;5.25;;;;;;;23.08;64.80;99286.38;130012;1089;113958;-71
2021/06/26 00:29:31;;;;;;;15.08;5.38;;;;;;;23.11;64.76;99285.66;130158;1090;22501;-71
2021/06/26 00:31:59;;;;;;;17.73;5.55;;;;;;;23.12;64.75;99290.88;130020;1090;113961;-71
2021/06/26 00:34:28;;;;;;;13.30;4.25;;;;;;;23.12;64.82;99284.50;130145;1090;22690;-72
2021/06/26 00:36:56;;;;;;;16.10;5.30;;;;;;;23.13;64.66;99291.69;129997;1090;114487;-71
2021/06/26 00:39:24;;;;;;;13.75;4.28;;;;;;;23.14;64.55;99288.56;130182;1090;22598;-71
2021/06/26 00:41:53;;;;;;;16.53;5.30;;;;;;;23.15;64.34;99281.84;130147;1090;23239;-71
2021/06/26 00:44:26;;;;;;;11.38;4.18;;;;;;;23.15;64.51;99281.03;130034;1090;114011;-71
2021/06/26 00:46:55;;;;;;;14.60;5.00;;;;;;;23.14;64.17;99279.41;130102;1090;22577;-71
2021/06/26 00:49:23;;;;;;;14.08;5.28;;;;;;;23.13;64.22;99284.16;130050;1090;114668;-71
2021/06/26 00:51:53;;;;;;;10.23;4.88;;;;;;;23.14;64.22;99284.97;130085;1090;22627;-71
2021/06/26 00:54:21;;;;;;;12.75;4.90;;;;;;;23.11;64.48;99280.09;130105;1090;22538;-71
2021/06/26 00:56:50;;;;;;;17.93;4.75;;;;;;;23.08;64.42;99280.81;130015;1090;114812;-71
2021/06/26 00:59:18;;;;;;;18.10;4.83;;;;;;;23.05;64.43;99284.28;130167;1090;22531;-71
2021/06/26 01:01:48;;;;;;;15.40;4.68;;;;;;;23.02;64.24;99280.22;129993;1089;113978;-71
2021/06/26 01:04:16;;;;;;;14.03;4.30;;;;;;;22.98;63.98;99276.51;130162;1090;22548;-71
2021/06/26 01:06:45;;;;;;;12.20;4.63;;;;;;;22.97;63.47;99285.19;127114;1088;22904;-71
2021/06/26 01:09:14;;;;;;;12.55;4.33;;;;;;;22.96;63.50;99278.01;129895;1090;113811;-71
2021/06/26 01:11:44;;;;;;;9.70;3.80;;;;;;;22.97;63.20;99282.41;130106;1090;22643;-71
2021/06/26 01:14:12;;;;;;;7.93;3.40;;;;;;;22.96;62.91;99280.78;129999;1090;113763;-71
2021/06/26 01:16:48;;;;;;;10.35;3.23;;;;;;;22.96;62.57;99281.59;130152;1090;23107;-71
2021/06/26 01:19:16;;;;;;;13.13;4.28;;;;;;;22.96;61.98;99278.81;129939;1090;115253;-71
2021/06/26 01:21:46;;;;;;;6.38;2.98;;;;;;;22.97;61.64;99293.52;130126;1090;23044;-71
2021/06/26 01:24:14;;;;;;;12.15;3.48;;;;;;;22.93;61.26;99290.65;130080;1090;23358;-69
2021/06/26 01:26:43;;;;;;;13.28;3.95;;;;;;;22.96;61.09;99300.23;130052;1090;113912;-69
2021/06/26 01:29:11;;;;;;;7.23;2.90;;;;;;;22.95;60.93;99293.05;130096;1090;23438;-69
2021/06/26 01:31:40;;;;;;;18.93;4.18;;;;;;;22.94;60.54;99300.58;130038;1090;114847;-71
2021/06/26 01:34:08;;;;;;;15.40;3.30;;;;;;;22.94;60.36;99295.02;130127;1090;22515;-71
2021/06/26 01:36:36;;;;;;;14.38;3.60;;;;;;;22.91;60.43;99296.55;130143;1090;23150;-67
2021/06/26 01:39:05;;;;;;;11.68;3.53;;;;;;;22.90;60.44;99289.36;129970;1090;114179;-67
2021/06/26 01:41:33;;;;;;;10.35;3.50;;;;;;;22.88;60.65;99290.86;130172;1090;23122;-67
2021/06/26 01:44:02;;;;;;;8.68;3.25;;;;;;;22.86;60.71;99290.39;129980;1090;113974;-66
2021/06/26 01:46:31;;;;;;;7.80;3.25;;;;;;;22.81;60.62;99288.64;130099;1090;22663;-67
2021/06/26 01:49:09;;;;;;;14.43;3.35;;;;;;;22.79;60.71;99284.61;130014;1090;114020;-67
2021/06/26 01:51:38;;;;;;;9.98;3.50;;;;;;;22.77;60.78;99278.58;130135;1090;22671;-67
2021/06/26 01:54:07;;;;;;;8.60;3.30;;;;;;;22.75;60.94;99278.08;130107;1090;24818;-67
2021/06/26 01:56:36;;;;;;;15.58;4.43;;;;;;;22.71;60.86;99269.62;130016;1090;113838;-67
2021/06/26 01:59:04;;;;;;;10.73;3.33;;;;;;;22.68;60.97;99267.52;130119;1088;23285;-67
2021/06/26 02:01:33;;;;;;;13.53;4.13;;;;;;;22.67;61.14;99271.45;130015;1089;114365;-67
2021/06/26 02:04:02;;;;;;;10.98;3.18;;;;;;;22.65;61.20;99270.20;130058;1092;22568;-67
2021/06/26 02:06:30;;;;;;;12.30;3.85;;;;;;;22.64;61.21;99266.61;127477;1093;22967;-71
2021/06/26 02:08:59;;;;;;;7.65;3.13;;;;;;;22.61;61.29;99272.84;129907;1093;113966;-71
2021/06/26 02:11:28;;;;;;;12.83;3.88;;;;;;;22.59;61.47;99277.93;130058;1093;23746;-71
2021/06/26 02:13:56;;;;;;;15.93;3.78;;;;;;;22.57;61.54;99275.49;129993;1093;114357;-71
2021/06/26 02:16:24;;;;;;;11.90;3.25;;;;;;;22.56;61.87;99268.31;130048;1092;22564;-71
2021/06/26 02:18:53;;;;;;;6.70;2.80;;;;;;;22.54;61.81;99272.58;130037;1092;113676;-67
2021/06/26 02:21:22;;;;;;;7.50;3.33;;;;;;;22.53;61.82;99268.18;129888;1092;23081;-71
2021/06/26 02:23:50;;;;;;;12.95;3.83;;;;;;;22.50;61.86;99266.92;130120;1092;22565;-71
2021/06/26 02:26:19;;;;;;;11.10;3.65;;;;;;;22.49;61.87;99254.20;129946;1093;114051;-71
2021/06/26 02:28:47;;;;;;;7.10;3.08;;;;;;;22.48;61.96;99252.58;130083;1092;23164;-71
2021/06/26 02:31:16;;;;;;;8.80;3.73;;;;;;;22.48;62.20;99241.47;129927;1093;114006;-71
2021/06/26 02:33:45;;;;;;;8.60;3.78;;;;;;;22.49;61.88;99245.87;130095;1092;22596;-71
2021/06/26 02:36:14;;;;;;;10.43;3.88;;;;;;;22.48;62.12;99237.88;130048;1093;22643;-71
2021/06/26 02:38:42;;;;;;;9.43;4.23;;;;;;;22.49;62.10;99239.50;129993;1092;114101;-71
2021/06/26 02:41:10;;;;;;;7.33;3.40;;;;;;;22.48;62.17;99237.88;130038;1090;24687;-71
2021/06/26 02:43:39;;;;;;;17.43;3.98;;;;;;;22.47;62.34;99241.81;130000;1090;114719;-71
2021/06/26 02:46:07;;;;;;;10.73;3.63;;;;;;;22.46;62.35;99248.52;130102;1089;23158;-71
2021/06/26 02:49:26;;;;;;;9.00;3.70;;;;;;;22.45;62.33;99241.34;125571;1093;26389;-70
2021/06/26 02:52:05;;;;;;;6.65;3.50;;;;;;;22.46;62.38;99249.33;125134;1093;25514;-71
2021/06/26 02:54:34;;;;;;;15.05;4.65;;;;;;;22.44;62.29;99234.97;125330;1092;25408;-70
2021/06/26 02:57:03;;;;;;;7.90;3.53;;;;;;;22.45;62.31;99238.56;125244;1093;113771;-71
2021/06/26 02:59:31;;;;;;;9.70;4.08;;;;;;;22.45;62.44;99236.59;125459;1092;22780;-69
2021/06/26 03:02:00;;;;;;;8.15;4.15;;;;;;;22.43;62.51;99236.13;129837;1092;115281;-70
2021/06/26 03:04:29;;;;;;;11.48;3.73;;;;;;;22.44;62.64;99239.71;129985;1093;23339;-71
2021/06/26 03:07:17;;;;;;;13.65;4.20;;;;;;;22.45;62.69;99233.01;129863;1092;114307;-71
2021/06/26 03:09:46;;;;;;;9.08;3.73;;;;;;;22.46;62.53;99229.89;130097;1093;22628;-71
2021/06/26 03:12:15;;;;;;;11.93;4.08;;;;;;;22.49;62.44;99225.63;129958;1092;22723;-71
2021/06/26 03:14:43;;;;;;;7.40;3.90;;;;;;;22.52;62.48;99224.91;129878;1092;113855;-71
2021/06/26 03:17:11;;;;;;;11.80;3.70;;;;;;;22.57;62.53;99224.70;130019;1092;23068;-71
2021/06/26 03:19:40;;;;;;;12.33;3.95;;;;;;;22.62;62.55;99220.89;129830;1093;114209;-71
2021/06/26 03:22:09;;;;;;;8.33;4.58;;;;;;;22.67;62.32;99227.02;130003;1092;22665;-71
2021/06/26 03:24:37;;;;;;;13.23;4.43;;;;;;;22.74;62.35;99229.23;129897;1092;22534;-71
2021/06/26 03:27:06;;;;;;;14.08;5.03;;;;;;;22.79;62.24;99231.83;129716;1092;113873;-71
2021/06/26 03:29:34;;;;;;;11.33;4.58;;;;;;;22.85;62.36;99224.88;129808;1093;23331;-71
2021/06/26 03:32:03;;;;;;;13.55;4.45;;;;;;;22.90;62.20;99225.46;129798;1093;113708;-71
2021/06/26 03:34:32;;;;;;;9.73;4.45;;;;;;;22.97;62.05;99218.50;129789;1092;22565;-71
2021/06/26 03:37:00;;;;;;;15.33;4.93;;;;;;;23.03;61.89;99204.04;129761;1093;113757;-71
2021/06/26 03:39:28;;;;;;;9.10;4.40;;;;;;;23.10;62.00;99209.81;129763;1093;23677;-71
2021/06/26 03:41:57;;;;;;;8.83;4.53;;;;;;;23.17;61.66;99212.02;129888;1092;22536;-71
2021/06/26 03:44:26;;;;;;;11.93;4.08;;;;;;;23.22;61.91;99212.60;129703;1093;113590;-71
2021/06/26 03:47:01;;;;;;;13.28;4.23;;;;;;;23.30;61.82;99215.59;126355;1091;22962;-70
2021/06/26 03:49:33;;;;;;;12.70;4.68;;;;;;;23.36;61.57;99208.64;125195;1093;114025;-70
2021/06/26 03:52:02;;;;;;;22.17;5.57;;;;;;;23.31;61.50;99192.19;125279;1093;23508;-70
2021/06/26 03:54:30;;;;;;;14.53;5.35;;;;;;;23.47;61.23;99204.20;129854;1092;23078;-71
2021/06/26 03:56:58;;;;;;;12.53;4.80;;;;;;;23.54;61.14;99215.56;129677;1093;115077;-71
2021/06/26 03:59:27;;;;;;;10.00;6.03;;;;;;;23.58;61.48;99200.61;129793;1093;22569;-71
2021/06/26 04:01:56;;;;;;;124.93;82.93;;;;;;;23.66;61.09;99206.40;129704;1093;113785;-70
2021/06/26 04:04:24;;;;;;;135.58;88.60;;;;;;;23.72;61.27;99203.00;129812;1092;22546;-71
2021/06/26 04:06:52;;;;;;;146.45;82.00;;;;;;;23.78;61.04;99198.81;129912;1092;22522;-69
2021/06/26 04:09:21;;;;;;;258.63;139.05;;;;;;;23.87;61.04;99195.88;129694;1093;114034;-71
2021/06/26 04:11:49;;;;;;;146.33;75.50;;;;;;;23.96;60.75;99193.73;129856;1093;22551;-71
2021/06/26 04:14:18;;;;;;;60.70;27.65;;;;;;;24.05;60.33;99194.41;129752;1093;114143;-71
2021/06/26 04:16:47;;;;;;;56.30;27.10;;;;;;;24.15;60.64;99193.88;126777;1093;26272;-70
2021/06/26 04:19:16;;;;;;;44.63;24.40;;;;;;;24.25;60.06;99192.57;125207;1093;114192;-70
2021/06/26 04:21:45;;;;;;;39.15;19.80;;;;;;;24.31;59.98;99178.05;125324;1093;23089;-71
2021/06/26 04:24:13;;;;;;;22.13;10.40;;;;;;;24.45;59.48;99179.58;129776;1093;23095;-71
2021/06/26 04:26:41;;;;;;;21.28;11.85;;;;;;;24.54;59.14;99175.44;129692;1093;113962;-71
2021/06/26 04:29:10;;;;;;;14.70;6.40;;;;;;;24.64;58.06;99176.89;129839;1092;22627;-71
2021/06/26 04:31:38;;;;;;;11.23;5.50;;;;;;;24.72;58.91;99169.51;129756;1093;114283;-71
2021/06/26 04:34:06;;;;;;;13.70;5.45;;;;;;;24.80;58.95;99174.91;129873;1093;22565;-71
2021/06/26 04:36:35;;;;;;;15.88;6.28;;;;;;;24.86;58.26;99164.28;129776;1092;22528;-71
2021/06/26 04:39:07;;;;;;;15.50;5.83;;;;;;;24.93;58.26;99164.47;129731;1093;113814;-71
2021/06/26 04:41:37;;;;;;;26.05;5.93;;;;;;;25.01;58.98;99160.69;129843;1093;23473;-71
2021/06/26 04:44:06;;;;;;;10.33;5.00;;;;;;;25.08;57.19;99162.84;129740;1092;113793;-71
2021/06/26 04:46:35;;;;;;;15.13;5.08;;;;;;;25.13;57.35;99165.34;127162;1092;22826;-66
2021/06/26 04:49:04;;;;;;;16.78;5.10;;;;;;;25.16;58.12;99156.25;129731;1093;114123;-67
2021/06/26 04:51:35;;;;;;;8.93;4.53;;;;;;;25.22;57.38;99160.39;129884;1093;23515;-66
2021/06/26 04:54:04;;;;;;;22.18;6.33;;;;;;;25.27;56.98;99155.31;129868;1093;22533;-67
2021/06/26 04:56:33;;;;;;;9.88;4.60;;;;;;;25.36;56.50;99149.55;129700;1093;113799;-67
2021/06/26 04:59:02;;;;;;;11.13;5.48;;;;;;;25.44;57.33;99158.86;129903;1093;22524;-66
2021/06/26 05:01:31;;;;;;;12.43;5.68;;;;;;;25.51;56.73;99154.25;129768;1092;114420;-67
2021/06/26 05:03:59;;;;;;;14.95;5.25;;;;;;;25.61;56.35;99153.69;129861;1092;22622;-67
2021/06/26 05:06:28;;;;;;;11.93;5.23;;;;;;;25.73;56.40;99155.52;129816;1093;23243;-66
2021/06/26 05:08:57;;;;;;;11.78;5.40;;;;;;;25.81;56.54;99151.72;129750;1093;113799;-67
2021/06/26 05:11:27;;;;;;;13.15;5.33;;;;;;;25.87;56.14;99149.41;129788;1093;22574;-66
2021/06/26 05:13:55;;;;;;;9.08;5.15;;;;;;;25.89;55.51;99150.66;129743;1092;114325;-66
2021/06/26 05:16:24;;;;;;;16.65;5.65;;;;;;;25.91;56.04;99150.30;129808;1093;22558;-66
2021/06/26 05:18:52;;;;;;;13.25;5.18;;;;;;;25.99;55.83;99160.41;129868;1093;22963;-67
2021/06/26 05:21:21;;;;;;;15.08;5.80;;;;;;;26.11;55.66;99153.88;129721;1092;113564;-67
2021/06/26 05:23:50;;;;;;;14.38;4.93;;;;;;;26.30;55.81;99151.86;129800;1092;22598;-67
2021/06/26 05:26:18;;;;;;;11.70;5.18;;;;;;;26.51;55.02;99154.23;127545;1092;113786;-71
2021/06/26 05:28:46;;;;;;;11.73;5.25;;;;;;;26.65;54.43;99157.27;125286;1091;22776;-72
2021/06/26 05:31:15;;;;;;;16.15;6.13;;;;;;;26.72;53.53;99160.16;129711;1093;113862;-71
2021/06/26 05:33:44;;;;;;;12.83;5.83;;;;;;;26.74;54.03;99154.20;129829;1093;22555;-72
2021/06/26 05:36:13;;;;;;;18.75;6.00;;;;;;;26.72;53.50;99160.16;129853;1092;22555;-71
2021/06/26 05:38:42;;;;;;;11.63;5.25;;;;;;;26.70;53.69;99156.13;129665;1093;114007;-71
2021/06/26 05:41:10;;;;;;;34.98;7.33;;;;;;;26.70;53.96;99158.92;129865;1093;22583;-72
2021/06/26 05:43:39;;;;;;;20.78;6.00;;;;;;;26.76;54.13;99155.45;129717;1091;113952;-71
2021/06/26 05:46:08;;;;;;;15.95;6.90;;;;;;;26.86;54.34;99162.38;129844;1093;22963;-71
2021/06/26 05:48:37;;;;;;;17.35;5.88;;;;;;;26.97;53.88;99155.02;129747;1093;22562;-71
2021/06/26 05:51:06;;;;;;;19.57;6.20;;;;;;;27.11;53.76;99154.42;129742;1093;113790;-71
2021/06/26 05:53:34;;;;;;;22.53;7.15;;;;;;;27.21;54.04;99148.16;129753;1092;22537;-71
2021/06/26 05:56:03;;;;;;;21.55;6.90;;;;;;;27.29;53.59;99143.46;128079;1093;113778;-71
2021/06/26 05:58:41;;;;;;;37.53;9.13;;;;;;;27.36;53.56;99149.17;129762;1093;23154;-70
2021/06/26 06:01:12;;;;;;;19.68;6.08;;;;;;;27.44;52.81;99151.67;129743;1092;114030;-70
2021/06/26 06:03:46;;;;;;;19.38;6.08;;;;;;;27.51;51.40;99145.38;129801;1093;22519;-70
2021/06/26 06:06:15;;;;;;;13.83;5.85;;;;;;;27.52;51.49;99146.98;129849;1093;23107;-70
2021/06/26 06:08:57;;;;;;;18.75;6.78;;;;;;;27.48;51.07;99148.92;129682;1093;114151;-70
2021/06/26 06:11:26;;;;;;;25.13;7.75;;;;;;;27.45;51.53;99146.88;129868;1093;23450;-70
2021/06/26 06:13:54;;;;;;;17.05;5.95;;;;;;;27.47;51.54;99152.91;129739;1092;113807;-70
2021/06/26 06:16:23;;;;;;;19.18;6.95;;;;;;;27.51;52.17;99145.38;129845;1093;22601;-70
2021/06/26 06:18:52;;;;;;;18.68;7.03;;;;;;;27.58;52.36;99148.28;129719;1093;22629;-70
2021/06/26 06:21:21;;;;;;;16.45;7.20;;;;;;;27.65;52.20;99147.58;129735;1092;113565;-71
2021/06/26 06:23:49;;;;;;;17.30;7.08;;;;;;;27.73;52.38;99147.27;129827;1092;22547;-71
2021/06/26 06:26:17;;;;;;;20.65;6.18;;;;;;;27.85;52.26;99153.80;127593;1093;113829;-66
2021/06/26 06:28:46;;;;;;;14.20;6.53;;;;;;;27.98;51.72;99147.58;129787;1093;22542;-66
2021/06/26 06:31:14;;;;;;;17.08;7.38;;;;;;;28.05;52.53;99150.44;129682;1093;113746;-66
2021/06/26 06:33:44;;;;;;;19.10;7.68;;;;;;;28.11;51.22;99148.92;129871;1092;22548;-66
2021/06/26 06:36:12;;;;;;;16.48;6.83;;;;;;;28.13;50.73;99149.31;129820;1092;23385;-66
2021/06/26 06:38:40;;;;;;;16.78;7.50;;;;;;;28.15;51.48;99155.34;129724;1092;114176;-67
2021/06/26 06:41:09;;;;;;;16.85;6.68;;;;;;;28.17;51.11;99143.75;129731;1093;22567;-66
2021/06/26 06:43:38;;;;;;;16.73;7.28;;;;;;;28.20;51.64;99151.42;129738;1093;114903;-67
2021/06/26 06:46:07;;;;;;;15.25;6.90;;;;;;;28.25;51.19;99150.28;129828;1093;22532;-67
2021/06/26 06:48:35;;;;;;;21.63;7.60;;;;;;;28.27;50.75;99150.70;129845;1093;22596;-67
2021/06/26 06:51:04;;;;;;;18.55;6.88;;;;;;;28.30;50.61;99147.91;129683;1093;115210;-66
2021/06/26 06:53:33;;;;;;;23.70;7.50;;;;;;;28.34;50.92;99137.55;129826;1093;23204;-67
2021/06/26 06:56:02;;;;;;;23.45;7.90;;;;;;;28.40;50.64;99138.02;129723;1092;113788;-71
2021/06/26 06:58:31;;;;;;;14.03;6.93;;;;;;;28.41;51.03;99132.03;129817;1092;23449;-71
2021/06/26 07:00:59;;;;;;;25.63;7.60;;;;;;;28.47;51.55;99126.86;129697;1093;114065;-71
2021/06/26 07:03:27;;;;;;;53.50;11.43;;;;;;;28.53;51.32;99127.31;129855;1093;22534;-72
2021/06/26 07:05:56;;;;;;;28.13;7.48;;;;;;;28.58;50.52;99124.94;129840;1092;22527;-71
2021/06/26 07:08:24;;;;;;;18.88;6.73;;;;;;;28.64;50.02;99122.59;129744;1093;115676;-70
2021/06/26 07:10:53;;;;;;;15.98;6.50;;;;;;;28.69;50.24;99130.66;129843;1093;23313;-71
2021/06/26 07:13:31;;;;;;;10.95;6.50;;;;;;;28.72;50.77;99136.27;129732;1093;114173;-71
2021/06/26 07:16:12;;;;;;;10.53;6.20;;;;;;;28.76;50.54;99137.11;129825;1093;22557;-71
2021/06/26 07:18:45;;;;;;;17.83;7.28;;;;;;;28.76;50.25;99142.72;129836;1093;22561;-71
2021/06/26 07:21:13;;;;;;;16.23;6.65;;;;;;;28.75;49.95;99129.08;129744;1092;114104;-71
2021/06/26 07:23:42;;;;;;;21.83;8.03;;;;;;;28.77;50.52;99132.31;129797;1093;22588;-71
2021/06/26 07:26:11;;;;;;;17.18;7.10;;;;;;;28.82;50.67;99121.58;129754;1093;113300;-71
2021/06/26 07:28:39;;;;;;;17.75;6.70;;;;;;;28.92;50.86;99116.42;129785;1093;22575;-71
2021/06/26 07:31:08;;;;;;;18.80;6.55;;;;;;;28.98;50.65;99112.06;129767;1093;114046;-71
2021/06/26 07:33:37;;;;;;;18.23;7.80;;;;;;;29.05;50.03;99112.90;129778;1093;23294;-71
2021/06/26 07:36:06;;;;;;;27.43;8.18;;;;;;;29.13;49.74;99116.56;129960;1093;22614;-71
2021/06/26 07:38:34;;;;;;;15.35;6.73;;;;;;;29.20;49.63;99113.78;129697;1093;113813;-71
2021/06/26 07:41:02;;;;;;;16.88;5.90;;;;;;;29.27;49.18;99113.03;129856;1093;22544;-71
2021/06/26 07:43:34;;;;;;;16.50;6.35;;;;;;;29.31;49.22;99120.25;129707;1092;114122;-71
2021/06/26 07:46:03;;;;;;;12.18;6.98;;;;;;;29.38;50.22;99122.30;129888;1092;23256;-71
2021/06/26 07:48:31;;;;;;;16.00;6.90;;;;;;;29.44;48.73;99121.55;129797;1093;22595;-71
2021/06/26 07:51:00;;;;;;;13.53;6.03;;;;;;;29.48;48.34;99113.15;129734;1092;113968;-70
2021/06/26 07:53:28;;;;;;;13.50;6.28;;;;;;;29.51;48.69;99117.98;129798;1092;22662;-71
2021/06/26 07:55:58;;;;;;;11.83;6.58;;;;;;;29.58;48.21;99122.84;129750;1093;114035;-71
2021/06/26 07:58:27;;;;;;;18.35;7.08;;;;;;;29.61;48.53;99125.63;129809;1093;22597;-71
2021/06/26 08:00:56;;;;;;;16.08;6.53;;;;;;;29.68;48.93;99117.25;129867;1093;23063;-71
2021/06/26 08:03:25;;;;;;;18.37;6.90;;;;;;;29.73;48.40;99119.66;129750;1093;113685;-71
2021/06/26 08:05:53;;;;;;;15.40;6.65;;;;;;;29.78;48.34;99119.28;128454;1093;22779;-72
2021/06/26 08:08:22;;;;;;;20.90;6.73;;;;;;;29.82;48.36;99127.73;125245;1093;114020;-73
2021/06/26 08:10:50;;;;;;;26.58;7.50;;;;;;;29.84;47.96;99128.14;125288;1093;22787;-71
2021/06/26 08:13:20;;;;;;;18.27;7.53;;;;;;;29.82;47.96;99128.53;125108;1093;114169;-71
2021/06/26 08:15:49;;;;;;;16.35;6.28;;;;;;;29.83;47.18;99126.53;125294;1093;22779;-71
2021/06/26 08:18:18;;;;;;;13.30;6.13;;;;;;;29.80;46.68;99133.74;129794;1093;22653;-71
2021/06/26 08:20:46;;;;;;;12.95;5.85;;;;;;;29.75;47.00;99125.69;129650;1092;114004;-71
2021/06/26 08:23:15;;;;;;;15.43;6.05;;;;;;;29.71;47.41;99130.51;129940;1093;22515;-72
2021/06/26 08:25:43;;;;;;;18.00;5.70;;;;;;;29.70;48.39;99123.28;129738;1093;114595;-72
2021/06/26 08:28:11;;;;;;;15.30;6.93;;;;;;;29.71;48.03;99121.28;129816;1093;22550;-72
2021/06/26 08:30:39;;;;;;;12.60;6.23;;;;;;;29.72;48.14;99120.86;129835;1092;22596;-72
2021/06/26 08:33:08;;;;;;;12.93;7.15;;;;;;;29.75;48.31;99122.08;129716;1093;113930;-73
2021/06/26 08:35:37;;;;;;;19.05;6.88;;;;;;;29.75;48.58;99117.27;129775;1092;22539;-67
2021/06/26 08:38:05;;;;;;;33.43;9.05;;;;;;;29.75;48.47;99117.27;129787;1093;114177;-67
2021/06/26 08:40:33;;;;;;;19.83;7.08;;;;;;;29.77;48.06;99112.05;129849;1093;22569;-67
2021/06/26 08:43:02;;;;;;;17.68;7.93;;;;;;;29.79;48.81;99115.28;129866;1093;22579;-67
2021/06/26 08:45:32;;;;;;;31.98;7.75;;;;;;;29.80;48.76;99111.27;129695;1092;113762;-67
2021/06/26 08:48:01;;;;;;;55.65;11.95;;;;;;;29.84;48.44;99108.48;129821;1093;22639;-67
2021/06/26 08:50:30;;;;;;;21.25;6.95;;;;;;;29.84;48.49;99112.09;129728;1093;114088;-66
2021/06/26 08:52:59;;;;;;;18.30;7.10;;;;;;;29.85;48.44;99112.90;129874;1093;23080;-66
2021/06/26 08:55:27;;;;;;;18.77;7.07;;;;;;;29.84;48.84;99106.48;129644;1093;114075;-67
2021/06/26 08:57:57;;;;;;;14.40;6.88;;;;;;;29.86;49.35;99106.89;129887;1093;22532;-67
2021/06/26 09:00:26;;;;;;;10.58;6.58;;;;;;;29.88;48.86;99112.89;129808;1093;22685;-66
2021/06/26 09:03:10;;;;;;;16.18;6.55;;;;;;;29.86;49.12;99104.08;129729;1092;113980;-66
2021/06/26 09:05:39;;;;;;;25.48;7.40;;;;;;;29.88;49.59;99100.84;129829;1093;22556;-71
2021/06/26 09:08:17;;;;;;;17.40;7.47;;;;;;;29.91;49.29;99100.05;129779;1092;113942;-71
2021/06/26 09:10:51;;;;;;;12.38;7.23;;;;;;;29.93;48.53;99096.85;129817;1093;23126;-71
2021/06/26 09:13:24;;;;;;;14.60;7.68;;;;;;;29.92;49.32;99086.81;129727;1092;114504;-71
2021/06/26 09:16:06;;;;;;;10.30;5.95;;;;;;;29.90;48.67;99090.82;129779;1093;22557;-71
2021/06/26 09:18:45;;;;;;;12.78;6.55;;;;;;;29.90;49.34;99087.20;129868;1093;23995;-71
2021/06/26 09:21:35;;;;;;;10.28;5.85;;;;;;;29.87;48.06;99091.61;129666;1092;114652;-71
2021/06/26 09:24:19;;;;;;;113.85;19.88;;;;;;;29.87;48.58;99085.99;129779;1092;23018;-71
2021/06/26 09:27:00;;;;;;;21.18;9.13;;;;;;;29.89;49.22;99083.59;129699;1093;114683;-71
2021/06/26 09:29:28;;;;;;;13.93;6.35;;;;;;;29.90;49.22;99078.78;130133;1093;22514;-70
2021/06/26 09:32:04;;;;;;;12.58;5.95;;;;;;;29.90;49.40;99088.02;129972;1090;114530;-70
2021/06/26 09:34:37;;;;;;;;;;;;;;;29.92;49.62;99086.81;130138;1089;23165;-71
2021/06/26 09:37:11;;;;;;;17.25;6.68;;;;;;;29.96;49.86;99079.20;130059;1090;21235;-71
2021/06/26 09:39:42;;;;;;;13.18;6.43;;;;;;;30.01;49.91;99081.66;128948;1091;113676;-72
2021/06/26 09:42:41;;;;;;;15.30;6.38;;;;;;;30.05;49.47;99082.45;125478;1091;22795;-71
2021/06/26 09:45:10;;;;;;;14.00;6.80;;;;;;;30.07;49.80;99072.42;125242;1093;114366;-71
2021/06/26 09:47:45;;;;;;;13.60;6.40;;;;;;;30.10;49.80;99079.26;130076;1090;22714;-71
2021/06/26 09:50:19;;;;;;;13.65;7.13;;;;;;;30.11;49.94;99078.86;130000;1093;114066;-71
2021/06/26 09:52:49;;;;;;;9.58;6.83;;;;;;;30.10;49.70;99077.25;130083;1093;23595;-71
2021/06/26 09:55:21;;;;;;;17.25;6.98;;;;;;;30.09;50.33;99075.64;129972;1093;113993;-70
2021/06/26 09:57:51;;;;;;;15.33;6.15;;;;;;;30.08;50.09;99078.84;130077;1090;22522;-71
2021/06/26 10:00:21;;;;;;;12.93;6.40;;;;;;;30.08;50.47;99076.04;130118;1090;23561;-71
2021/06/26 10:02:50;;;;;;;9.95;5.83;;;;;;;30.09;49.67;99077.65;129979;1093;113330;-71
2021/06/26 10:05:18;;;;;;;11.48;5.78;;;;;;;30.11;49.77;99076.05;130123;1090;23427;-71
2021/06/26 10:07:48;;;;;;;16.50;7.05;;;;;;;30.18;49.52;99078.05;129989;1090;114139;-71
2021/06/26 10:10:19;;;;;;;11.08;6.80;;;;;;;30.26;49.68;99079.67;130087;1090;24275;-71
2021/06/26 10:12:49;;;;;;;12.18;6.65;;;;;;;30.33;49.25;99074.04;130085;1090;23072;-71
2021/06/26 10:15:37;;;;;;;21.53;6.40;;;;;;;30.40;49.44;99073.25;130009;1090;113658;-71
2021/06/26 10:18:06;;;;;;;15.00;6.70;;;;;;;30.43;49.05;99067.64;130088;1091;22580;-71
2021/06/26 10:20:37;;;;;;;14.88;6.65;;;;;;;30.45;48.58;99068.02;129985;1091;114659;-71
2021/06/26 10:23:06;;;;;;;10.03;6.33;;;;;;;30.44;48.67;99060.78;130101;1090;22542;-71
2021/06/26 10:25:36;;;;;;;13.10;6.03;;;;;;;30.42;49.07;99057.59;129949;1093;114141;-71
2021/06/26 10:28:13;;;;;;;12.78;5.80;;;;;;;30.42;49.07;99048.36;130120;1090;22718;-71
2021/06/26 10:30:42;;;;;;;;;;;;;;;30.43;49.22;99044.34;130104;1091;22612;-71
2021/06/26 10:33:10;;;;;;;8.18;6.25;;;;;;;30.44;49.41;99041.09;130012;1090;100088;-71
2021/06/26 10:35:53;;;;;;;13.25;6.40;;;;;;;30.47;48.87;99036.69;130049;1091;22675;-70
2021/06/26 10:38:21;;;;;;;16.25;6.50;;;;;;;30.49;49.51;99034.28;130016;1091;113960;-71
2021/06/26 10:40:50;;;;;;;11.90;5.88;;;;;;;30.51;49.38;99015.80;130072;1092;22564;-71
2021/06/26 10:43:21;;;;;;;10.25;6.03;;;;;;;30.55;49.50;99013.02;129991;1090;113974;-71
2021/06/26 10:46:11;;;;;;;9.90;6.45;;;;;;;30.59;49.51;98994.11;130101;1090;23480;-66
2021/06/26 10:48:41;;;;;;;19.13;6.88;;;;;;;30.65;50.03;99000.95;130126;1093;22559;-66
2021/06/26 10:51:10;;;;;;;9.43;5.70;;;;;;;30.72;49.13;98997.33;129996;1090;113967;-66
2021/06/26 10:53:39;;;;;;;14.30;5.93;;;;;;;30.77;48.98;98996.89;130100;1093;23290;-66
2021/06/26 10:56:09;;;;;;;50.93;10.38;;;;;;;30.83;49.38;99003.72;129969;1092;114121;-66
2021/06/26 10:58:38;;;;;;;21.28;6.78;;;;;;;30.85;48.87;99002.11;130108;1093;23350;-66
2021/06/26 11:01:23;;;;;;;10.88;6.68;;;;;;;30.85;48.59;99009.74;130088;1090;22617;-67
2021/06/26 11:04:08;;;;;;;10.60;5.88;;;;;;;30.77;47.70;99011.76;129991;1093;113695;-67
2021/06/26 11:06:38;;;;;;;41.20;10.45;;;;;;;30.65;48.00;99017.02;130095;1092;22553;-67
2021/06/26 11:09:08;;;;;;;16.83;6.70;;;;;;;30.54;48.47;99026.28;130024;1090;114371;-66
2021/06/26 11:11:45;;;;;;;9.58;5.93;;;;;;;30.45;48.24;99025.84;130084;1090;22667;-66
2021/06/26 11:14:20;;;;;;;16.85;6.08;;;;;;;30.35;47.10;99018.23;129977;1090;113952;-66
2021/06/26 11:17:00;;;;;;;10.35;4.98;;;;;;;30.22;46.57;99020.64;126553;1090;23016;-69
2021/06/26 11:19:33;;;;;;;10.40;4.95;;;;;;;30.12;46.11;99029.89;130085;1090;23295;-70
2021/06/26 11:22:02;;;;;;;12.95;5.08;;;;;;;30.02;46.35;99027.05;129949;1093;113896;-69
2021/06/26 11:24:31;;;;;;;8.20;4.50;;;;;;;29.91;45.42;99012.97;130073;1091;22648;-70
2021/06/26 11:27:00;;;;;;;13.05;4.53;;;;;;;29.79;44.88;99027.41;129985;1090;113848;-69
2021/06/26 11:29:38;;;;;;;7.68;4.55;;;;;;;29.68;44.95;99024.59;130133;1090;22622;-70